createdAt,value
2018-01-03T00:00:06.915Z,0
2018-01-03T00:01:08.723Z,0
2018-01-03T00:02:10.507Z,0
2018-01-03T00:03:12.364Z,0
2018-01-03T00:04:14.154Z,0
2018-01-03T00:05:18.391Z,0
2018-01-03T00:06:22.694Z,0
2018-01-03T00:07:27.205Z,0
2018-01-03T00:08:38.201Z,0
2018-01-03T00:09:55.276Z,0
2018-01-03T00:11:11.190Z,0
2018-01-03T00:12:33.065Z,0
2018-01-03T00:14:12.631Z,0
2018-01-03T00:15:23.744Z,0
2018-01-03T00:16:43.177Z,0
2018-01-03T00:17:57.003Z,0
2018-01-03T00:19:08.770Z,0
2018-01-03T00:20:29.379Z,0
2018-01-03T00:21:31.267Z,0
2018-01-03T00:22:33.643Z,0
2018-01-03T00:23:35.431Z,0
2018-01-03T00:24:37.236Z,0
2018-01-03T00:25:39.067Z,0
2018-01-03T00:26:40.837Z,0
2018-01-03T00:27:49.499Z,0
2018-01-03T00:28:50.140Z,0
2018-01-03T00:29:51.958Z,0
2018-01-03T00:30:53.805Z,0
2018-01-03T00:31:55.645Z,0
2018-01-03T00:32:57.629Z,0
2018-01-03T00:33:59.448Z,0
2018-01-03T00:35:01.317Z,0
2018-01-03T00:36:03.149Z,0
2018-01-03T00:37:05.014Z,0
2018-01-03T00:38:06.884Z,0
2018-01-03T00:39:08.719Z,0
2018-01-03T00:40:10.671Z,0
2018-01-03T00:41:12.504Z,0
2018-01-03T00:42:14.392Z,0
2018-01-03T00:43:16.181Z,0
2018-01-03T00:44:18.062Z,0
2018-01-03T00:45:19.950Z,0
2018-01-03T00:46:21.794Z,0
2018-01-03T00:47:23.609Z,0
2018-01-03T00:48:25.675Z,0
2018-01-03T00:49:27.480Z,0
2018-01-03T00:50:29.290Z,0
2018-01-03T00:51:31.147Z,0
2018-01-03T00:52:33.006Z,0
2018-01-03T00:53:34.848Z,0
2018-01-03T00:54:36.821Z,0
2018-01-03T00:55:38.624Z,0
2018-01-03T00:56:40.525Z,0
2018-01-03T00:57:42.435Z,0
2018-01-03T00:58:44.482Z,0
2018-01-03T00:59:46.270Z,0
2018-01-03T01:00:48.833Z,0
2018-01-03T01:01:50.762Z,0
2018-01-03T01:02:52.634Z,0
2018-01-03T01:03:54.392Z,0
2018-01-03T01:04:56.200Z,0
2018-01-03T01:05:57.987Z,0
2018-01-03T01:06:59.827Z,0
2018-01-03T01:08:01.650Z,0
2018-01-03T01:09:03.505Z,0
2018-01-03T01:10:05.361Z,0
2018-01-03T01:11:07.349Z,0
2018-01-03T01:12:09.154Z,0
2018-01-03T01:13:11.046Z,0
2018-01-03T01:14:12.830Z,0
2018-01-03T01:15:14.681Z,0
2018-01-03T01:16:16.428Z,0
2018-01-03T01:17:18.146Z,0
2018-01-03T01:18:19.917Z,0
2018-01-03T01:19:21.691Z,0
2018-01-03T01:20:23.434Z,0
2018-01-03T01:21:25.169Z,0
2018-01-03T01:22:26.911Z,0
2018-01-03T01:23:28.696Z,0
2018-01-03T01:24:30.387Z,0
2018-01-03T01:25:32.156Z,0
2018-01-03T01:26:33.893Z,0
2018-01-03T01:27:35.621Z,0
2018-01-03T01:28:37.358Z,0
2018-01-03T01:29:39.089Z,0
2018-01-03T01:30:40.900Z,0
2018-01-03T01:31:42.652Z,0
2018-01-03T01:32:44.360Z,0
2018-01-03T01:33:46.090Z,0
2018-01-03T01:34:47.812Z,0
2018-01-03T01:35:49.569Z,0
2018-01-03T01:36:51.311Z,0
2018-01-03T01:37:53.039Z,0
2018-01-03T01:38:56.173Z,0
2018-01-03T01:39:57.904Z,0
2018-01-03T01:40:59.636Z,0
2018-01-03T01:42:01.475Z,0
2018-01-03T01:43:03.236Z,0
2018-01-03T01:44:04.955Z,0
2018-01-03T01:45:06.903Z,0
2018-01-03T01:46:08.637Z,0
2018-01-03T01:47:10.384Z,0
2018-01-03T01:48:12.152Z,0
2018-01-03T01:49:13.877Z,0
2018-01-03T01:50:15.646Z,0
2018-01-03T01:51:17.388Z,0
2018-01-03T01:52:19.152Z,0
2018-01-03T01:53:20.897Z,0
2018-01-03T01:54:22.641Z,0
2018-01-03T01:55:24.397Z,0
2018-01-03T01:56:26.154Z,0
2018-01-03T01:57:27.894Z,0
2018-01-03T01:58:29.754Z,0
2018-01-03T01:59:31.473Z,0
2018-01-03T02:00:33.238Z,0
2018-01-03T02:01:35.001Z,0
2018-01-03T02:02:37.277Z,0
2018-01-03T02:03:39.025Z,0
2018-01-03T02:04:40.842Z,0
2018-01-03T02:05:42.584Z,0
2018-01-03T02:06:44.334Z,0
2018-01-03T02:07:46.076Z,0
2018-01-03T02:08:47.843Z,0
2018-01-03T02:09:49.586Z,0
2018-01-03T02:10:51.337Z,0
2018-01-03T02:11:53.079Z,0
2018-01-03T02:12:54.797Z,0
2018-01-03T02:13:56.538Z,0
2018-01-03T02:14:58.261Z,0
2018-01-03T02:15:59.999Z,0
2018-01-03T02:17:01.753Z,0
2018-01-03T02:18:03.484Z,0
2018-01-03T02:19:05.256Z,0
2018-01-03T02:20:06.981Z,0
2018-01-03T02:21:08.764Z,0
2018-01-03T02:22:10.507Z,0
2018-01-03T02:23:12.258Z,0
2018-01-03T02:24:13.999Z,0
2018-01-03T02:25:15.761Z,0
2018-01-03T02:26:17.499Z,0
2018-01-03T02:27:19.253Z,0
2018-01-03T02:28:21.003Z,0
2018-01-03T02:29:22.804Z,0
2018-01-03T02:30:24.591Z,0
2018-01-03T02:31:26.333Z,0
2018-01-03T02:32:28.104Z,0
2018-01-03T02:33:29.872Z,0
2018-01-03T02:34:31.606Z,0
2018-01-03T02:35:33.373Z,0
2018-01-03T02:36:35.091Z,0
2018-01-03T02:37:36.836Z,0
2018-01-03T02:38:38.567Z,0
2018-01-03T02:39:40.318Z,0
2018-01-03T02:40:42.137Z,0
2018-01-03T02:41:43.961Z,0
2018-01-03T02:42:45.717Z,0
2018-01-03T02:43:47.461Z,0
2018-01-03T02:44:49.202Z,0
2018-01-03T02:45:50.952Z,0
2018-01-03T02:46:52.775Z,0
2018-01-03T02:47:54.502Z,0
2018-01-03T02:48:56.232Z,0
2018-01-03T02:49:58.000Z,0
2018-01-03T02:50:59.735Z,0
2018-01-03T02:52:01.487Z,0
2018-01-03T02:53:04.048Z,0
2018-01-03T02:54:05.812Z,0
2018-01-03T02:55:07.553Z,0
2018-01-03T02:56:09.263Z,0
2018-01-03T02:57:11.005Z,0
2018-01-03T02:58:13.301Z,0
2018-01-03T02:59:15.039Z,0
2018-01-03T03:00:16.791Z,0
2018-01-03T03:01:18.559Z,0
2018-01-03T03:02:20.297Z,0
2018-01-03T03:03:22.074Z,0
2018-01-03T03:04:23.807Z,0
2018-01-03T03:05:25.557Z,0
2018-01-03T03:06:27.286Z,0
2018-01-03T03:07:29.063Z,0
2018-01-03T03:08:30.839Z,0
2018-01-03T03:09:32.610Z,0
2018-01-03T03:10:34.349Z,0
2018-01-03T03:11:36.092Z,0
2018-01-03T03:12:37.854Z,0
2018-01-03T03:13:39.600Z,0
2018-01-03T03:14:41.381Z,0
2018-01-03T03:15:43.119Z,0
2018-01-03T03:16:44.868Z,0
2018-01-03T03:17:46.610Z,0
2018-01-03T03:18:48.365Z,0
2018-01-03T03:19:50.121Z,0
2018-01-03T03:20:51.870Z,0
2018-01-03T03:21:53.581Z,0
2018-01-03T03:22:55.319Z,0
2018-01-03T03:23:57.053Z,0
2018-01-03T03:24:58.776Z,0
2018-01-03T03:26:00.508Z,0
2018-01-03T03:27:02.254Z,0
2018-01-03T03:28:04.004Z,0
2018-01-03T03:29:05.739Z,0
2018-01-03T03:30:07.462Z,0
2018-01-03T03:31:09.209Z,0
2018-01-03T03:32:10.960Z,0
2018-01-03T03:33:12.713Z,0
2018-01-03T03:34:14.472Z,0
2018-01-03T03:35:16.206Z,0
2018-01-03T03:36:17.951Z,0
2018-01-03T03:37:19.713Z,0
2018-01-03T03:38:21.448Z,0
2018-01-03T03:39:23.210Z,0
2018-01-03T03:40:24.936Z,0
2018-01-03T03:41:26.666Z,0
2018-01-03T03:42:28.418Z,0
2018-01-03T03:43:30.161Z,0
2018-01-03T03:44:31.886Z,0
2018-01-03T03:45:33.637Z,0
2018-01-03T03:46:35.360Z,0
2018-01-03T03:47:37.100Z,0
2018-01-03T03:48:38.844Z,0
2018-01-03T03:49:40.580Z,0
2018-01-03T03:50:42.397Z,0
2018-01-03T03:51:44.133Z,0
2018-01-03T03:52:45.875Z,0
2018-01-03T03:53:47.627Z,0
2018-01-03T03:54:49.368Z,0
2018-01-03T03:55:51.111Z,0
2018-01-03T03:56:52.914Z,0
2018-01-03T03:57:54.669Z,0
2018-01-03T03:58:56.422Z,0
2018-01-03T03:59:58.225Z,0
2018-01-03T04:00:59.976Z,0
2018-01-03T04:02:01.710Z,0
2018-01-03T04:03:03.438Z,0
2018-01-03T04:04:05.184Z,0
2018-01-03T04:05:06.911Z,0
2018-01-03T04:06:08.643Z,0
2018-01-03T04:07:10.375Z,0
2018-01-03T04:08:12.109Z,0
2018-01-03T04:09:13.846Z,0
2018-01-03T04:10:15.584Z,0
2018-01-03T04:11:17.314Z,0
2018-01-03T04:12:19.065Z,0
2018-01-03T04:13:20.789Z,0
2018-01-03T04:14:22.598Z,0
2018-01-03T04:15:24.381Z,0
2018-01-03T04:16:26.099Z,0
2018-01-03T04:17:27.912Z,0
2018-01-03T04:18:29.687Z,0
2018-01-03T04:19:31.447Z,0
2018-01-03T04:20:33.231Z,0
2018-01-03T04:21:35.016Z,0
2018-01-03T04:22:36.730Z,0
2018-01-03T04:23:38.510Z,0
2018-01-03T04:24:40.277Z,0
2018-01-03T04:25:42.071Z,0
2018-01-03T04:26:43.807Z,0
2018-01-03T04:27:45.532Z,0
2018-01-03T04:28:47.297Z,0
2018-01-03T04:29:49.002Z,0
2018-01-03T04:30:50.743Z,0
2018-01-03T04:31:52.453Z,0
2018-01-03T04:32:54.197Z,0
2018-01-03T04:33:55.965Z,0
2018-01-03T04:34:57.730Z,0
2018-01-03T04:35:59.489Z,0
2018-01-03T04:37:01.227Z,0
2018-01-03T04:38:03.029Z,0
2018-01-03T04:39:04.770Z,0
2018-01-03T04:40:06.506Z,0
2018-01-03T04:41:08.256Z,0
2018-01-03T04:42:09.982Z,0
2018-01-03T04:43:11.719Z,0
2018-01-03T04:44:13.478Z,0
2018-01-03T04:45:15.226Z,0
2018-01-03T04:46:17.007Z,0
2018-01-03T04:47:18.758Z,0
2018-01-03T04:48:20.554Z,0
2018-01-03T04:49:22.287Z,0
2018-01-03T04:50:24.021Z,0
2018-01-03T04:51:25.729Z,0
2018-01-03T04:52:27.460Z,0
2018-01-03T04:53:29.198Z,0
2018-01-03T04:54:30.955Z,0
2018-01-03T04:55:32.673Z,0
2018-01-03T04:56:34.417Z,0
2018-01-03T04:57:36.119Z,0
2018-01-03T04:58:37.856Z,0
2018-01-03T04:59:39.621Z,0
2018-01-03T05:00:41.352Z,0
2018-01-03T05:01:43.188Z,0
2018-01-03T05:02:44.917Z,0
2018-01-03T05:03:46.642Z,0
2018-01-03T05:04:48.376Z,0
2018-01-03T05:05:50.107Z,0
2018-01-03T05:06:51.842Z,0
2018-01-03T05:07:53.599Z,0
2018-01-03T05:08:55.337Z,0
2018-01-03T05:09:57.084Z,0
2018-01-03T05:10:58.823Z,0
2018-01-03T05:12:00.582Z,0
2018-01-03T05:13:02.321Z,0
2018-01-03T05:14:04.062Z,0
2018-01-03T05:15:05.788Z,0
2018-01-03T05:16:07.577Z,0
2018-01-03T05:17:09.338Z,0
2018-01-03T05:18:11.082Z,0
2018-01-03T05:19:12.822Z,0
2018-01-03T05:20:14.566Z,0
2018-01-03T05:21:16.308Z,0
2018-01-03T05:22:18.061Z,0
2018-01-03T05:23:19.830Z,0
2018-01-03T05:24:21.572Z,0
2018-01-03T05:25:23.456Z,0
2018-01-03T05:26:25.208Z,0
2018-01-03T05:27:26.929Z,0
2018-01-03T05:28:28.684Z,0
2018-01-03T05:29:30.405Z,0
2018-01-03T05:30:32.130Z,0
2018-01-03T05:31:33.857Z,0
2018-01-03T05:32:35.620Z,0
2018-01-03T05:33:37.384Z,0
2018-01-03T05:34:39.122Z,0
2018-01-03T05:35:40.880Z,0
2018-01-03T05:36:42.611Z,0
2018-01-03T05:37:44.375Z,0
2018-01-03T05:38:46.112Z,0
2018-01-03T05:39:47.843Z,0
2018-01-03T05:40:49.597Z,0
2018-01-03T05:41:51.340Z,0
2018-01-03T05:42:53.076Z,0
2018-01-03T05:43:54.802Z,0
2018-01-03T05:44:56.535Z,0
2018-01-03T05:45:58.276Z,0
2018-01-03T05:47:00.022Z,0
2018-01-03T05:48:01.748Z,0
2018-01-03T05:49:03.486Z,0
2018-01-03T05:50:05.220Z,0
2018-01-03T05:51:06.970Z,0
2018-01-03T05:52:08.713Z,0
2018-01-03T05:53:10.438Z,0
2018-01-03T05:54:12.158Z,0
2018-01-03T05:55:13.885Z,0
2018-01-03T05:56:15.623Z,0
2018-01-03T05:57:17.340Z,0
2018-01-03T05:58:19.076Z,0
2018-01-03T05:59:20.810Z,0
2018-01-03T06:00:22.533Z,0
2018-01-03T06:01:24.345Z,0
2018-01-03T06:02:26.100Z,0
2018-01-03T06:03:27.874Z,0
2018-01-03T06:04:29.612Z,0
2018-01-03T06:05:31.328Z,0
2018-01-03T06:06:33.076Z,0
2018-01-03T06:07:34.796Z,0
2018-01-03T06:08:36.532Z,0
2018-01-03T06:09:38.261Z,0
2018-01-03T06:10:39.993Z,0
2018-01-03T06:11:41.721Z,0
2018-01-03T06:12:43.478Z,0
2018-01-03T06:13:45.223Z,0
2018-01-03T06:14:46.949Z,0
2018-01-03T06:15:48.689Z,0
2018-01-03T06:16:50.390Z,0
2018-01-03T06:17:52.163Z,0
2018-01-03T06:18:53.887Z,0
2018-01-03T06:19:55.631Z,0
2018-01-03T06:20:57.374Z,0
2018-01-03T06:21:59.114Z,0
2018-01-03T06:23:00.829Z,0
2018-01-03T06:24:02.548Z,0
2018-01-03T06:25:04.313Z,0
2018-01-03T06:26:06.057Z,0
2018-01-03T06:27:07.774Z,0
2018-01-03T06:28:09.516Z,0
2018-01-03T06:29:11.284Z,0
2018-01-03T06:30:13.011Z,0
2018-01-03T06:31:14.739Z,0
2018-01-03T06:32:16.477Z,0
2018-01-03T06:33:18.238Z,0
2018-01-03T06:34:19.962Z,0
2018-01-03T06:35:21.726Z,0
2018-01-03T06:36:23.473Z,0
2018-01-03T06:37:25.202Z,0
2018-01-03T06:38:26.949Z,0
2018-01-03T06:39:28.692Z,0
2018-01-03T06:40:30.424Z,0
2018-01-03T06:41:32.233Z,0
2018-01-03T06:42:34.030Z,0
2018-01-03T06:43:35.835Z,0
2018-01-03T06:44:37.650Z,0
2018-01-03T06:45:39.405Z,0
2018-01-03T06:46:41.115Z,0
2018-01-03T06:47:42.866Z,0
2018-01-03T06:48:44.643Z,0
2018-01-03T06:49:46.361Z,0
2018-01-03T06:50:48.093Z,0
2018-01-03T06:51:49.822Z,0
2018-01-03T06:52:51.597Z,0
2018-01-03T06:53:53.316Z,0
2018-01-03T06:54:55.124Z,0
2018-01-03T06:55:56.860Z,0
2018-01-03T06:56:58.592Z,0
2018-01-03T06:58:00.350Z,0
2018-01-03T06:59:02.096Z,0
2018-01-03T07:00:03.951Z,0
2018-01-03T07:01:05.652Z,0
2018-01-03T07:02:07.418Z,0
2018-01-03T07:03:09.135Z,0
2018-01-03T07:04:10.868Z,0
2018-01-03T07:05:12.604Z,0
2018-01-03T07:06:14.328Z,0
2018-01-03T07:07:16.070Z,0
2018-01-03T07:08:17.808Z,0
2018-01-03T07:09:19.571Z,0
2018-01-03T07:10:21.306Z,0
2018-01-03T07:11:23.065Z,0
2018-01-03T07:12:24.805Z,0
2018-01-03T07:13:26.534Z,0
2018-01-03T07:14:28.264Z,0
2018-01-03T07:15:29.989Z,0
2018-01-03T07:16:31.727Z,0
2018-01-03T07:17:33.456Z,0
2018-01-03T07:18:35.211Z,0
2018-01-03T07:19:36.944Z,0
2018-01-03T07:20:38.720Z,0
2018-01-03T07:21:40.450Z,0
2018-01-03T07:22:42.187Z,0
2018-01-03T07:23:43.907Z,0
2018-01-03T07:24:45.690Z,0
2018-01-03T07:25:47.421Z,0
2018-01-03T07:26:49.164Z,0
2018-01-03T07:27:50.902Z,0
2018-01-03T07:28:52.750Z,0
2018-01-03T07:29:54.531Z,4
2018-01-03T07:30:56.286Z,0
2018-01-03T07:31:58.020Z,0
2018-01-03T07:32:59.766Z,0
2018-01-03T07:34:01.523Z,0
2018-01-03T07:35:03.299Z,4
2018-01-03T07:36:05.021Z,0
2018-01-03T07:37:06.776Z,4
2018-01-03T07:38:08.490Z,4
2018-01-03T07:39:10.260Z,8
2018-01-03T07:40:11.988Z,4
2018-01-03T07:41:13.721Z,8
2018-01-03T07:42:15.480Z,8
2018-01-03T07:43:17.265Z,12
2018-01-03T07:44:18.960Z,12
2018-01-03T07:45:20.699Z,16
2018-01-03T07:46:22.435Z,16
2018-01-03T07:47:24.156Z,20
2018-01-03T07:48:26.022Z,24
2018-01-03T07:49:27.770Z,28
2018-01-03T07:50:29.528Z,32
2018-01-03T07:51:31.291Z,32
2018-01-03T07:52:32.999Z,40
2018-01-03T07:53:34.747Z,44
2018-01-03T07:54:36.587Z,48
2018-01-03T07:55:38.423Z,48
2018-01-03T07:56:40.299Z,60
2018-01-03T07:57:42.128Z,64
2018-01-03T07:58:44.088Z,76
2018-01-03T07:59:45.981Z,88
2018-01-03T08:00:48.570Z,96
2018-01-03T08:01:50.370Z,108
2018-01-03T08:02:52.202Z,120
2018-01-03T08:03:53.987Z,128
2018-01-03T08:04:55.927Z,132
2018-01-03T08:05:57.794Z,140
2018-01-03T08:06:59.695Z,156
2018-01-03T08:08:01.601Z,168
2018-01-03T08:09:03.378Z,188
2018-01-03T08:10:05.225Z,196
2018-01-03T08:11:07.018Z,224
2018-01-03T08:12:08.857Z,252
2018-01-03T08:13:10.687Z,272
2018-01-03T08:14:12.571Z,292
2018-01-03T08:15:14.421Z,332
2018-01-03T08:16:16.229Z,388
2018-01-03T08:17:18.089Z,420
2018-01-03T08:18:19.941Z,476
2018-01-03T08:19:21.855Z,476
2018-01-03T08:20:24.464Z,496
2018-01-03T08:21:26.232Z,500
2018-01-03T08:22:28.026Z,496
2018-01-03T08:23:29.774Z,516
2018-01-03T08:24:31.546Z,548
2018-01-03T08:25:33.311Z,548
2018-01-03T08:26:35.114Z,536
2018-01-03T08:27:36.882Z,516
2018-01-03T08:28:38.614Z,528
2018-01-03T08:29:40.383Z,568
2018-01-03T08:30:42.142Z,620
2018-01-03T08:31:44.053Z,620
2018-01-03T08:32:45.879Z,556
2018-01-03T08:33:47.660Z,564
2018-01-03T08:34:51.573Z,556
2018-01-03T08:35:53.327Z,532
2018-01-03T08:36:55.106Z,532
2018-01-03T08:37:56.879Z,580
2018-01-03T08:38:58.668Z,604
2018-01-03T08:40:00.458Z,568
2018-01-03T08:41:02.251Z,624
2018-01-03T08:42:03.982Z,732
2018-01-03T08:43:05.735Z,688
2018-01-03T08:44:07.670Z,768
2018-01-03T08:45:09.577Z,800
2018-01-03T08:46:11.504Z,852
2018-01-03T08:47:13.282Z,848
2018-01-03T08:48:15.087Z,816
2018-01-03T08:49:16.969Z,744
2018-01-03T08:50:18.763Z,704
2018-01-03T08:51:20.645Z,696
2018-01-03T08:52:22.516Z,644
2018-01-03T08:53:24.336Z,560
2018-01-03T08:54:26.212Z,528
2018-01-03T08:55:28.134Z,448
2018-01-03T08:56:29.999Z,428
2018-01-03T08:57:31.869Z,408
2018-01-03T08:58:33.670Z,400
2018-01-03T08:59:35.414Z,392
2018-01-03T09:00:37.181Z,364
2018-01-03T09:01:38.981Z,376
2018-01-03T09:02:40.715Z,416
2018-01-03T09:03:42.444Z,396
2018-01-03T09:04:44.189Z,376
2018-01-03T09:05:46.024Z,356
2018-01-03T09:06:47.743Z,384
2018-01-03T09:07:49.509Z,544
2018-01-03T09:08:51.231Z,588
2018-01-03T09:09:52.959Z,744
2018-01-03T09:10:54.740Z,844
2018-01-03T09:11:56.522Z,868
2018-01-03T09:12:58.297Z,968
2018-01-03T09:14:00.043Z,900
2018-01-03T09:15:01.812Z,1008
2018-01-03T09:16:03.571Z,1080
2018-01-03T09:17:05.371Z,1064
2018-01-03T09:18:07.157Z,1108
2018-01-03T09:19:08.945Z,1164
2018-01-03T09:20:10.743Z,1144
2018-01-03T09:21:12.511Z,1300
2018-01-03T09:22:14.248Z,1352
2018-01-03T09:23:15.992Z,1452
2018-01-03T09:24:17.752Z,1600
2018-01-03T09:25:19.521Z,1660
2018-01-03T09:26:21.380Z,1596
2018-01-03T09:27:23.166Z,1604
2018-01-03T09:28:24.972Z,1612
2018-01-03T09:29:26.775Z,1548
2018-01-03T09:30:28.820Z,1752
2018-01-03T09:31:30.599Z,1652
2018-01-03T09:32:32.349Z,1600
2018-01-03T09:33:34.104Z,1436
2018-01-03T09:34:35.870Z,1148
2018-01-03T09:35:37.676Z,1136
2018-01-03T09:36:39.453Z,1012
2018-01-03T09:37:41.254Z,1068
2018-01-03T09:38:43.168Z,1084
2018-01-03T09:39:44.967Z,1088
2018-01-03T09:40:46.804Z,996
2018-01-03T09:41:48.577Z,1164
2018-01-03T09:42:50.378Z,1440
2018-01-03T09:43:52.137Z,1408
2018-01-03T09:44:53.873Z,1640
2018-01-03T09:45:55.634Z,1636
2018-01-03T09:46:57.393Z,1508
2018-01-03T09:47:59.171Z,1228
2018-01-03T09:49:00.889Z,1088
2018-01-03T09:50:03.468Z,1044
2018-01-03T09:51:05.212Z,1092
2018-01-03T09:52:06.981Z,1140
2018-01-03T09:53:08.782Z,1260
2018-01-03T09:54:10.497Z,1488
2018-01-03T09:55:12.227Z,1532
2018-01-03T09:56:13.988Z,1532
2018-01-03T09:57:15.749Z,1840
2018-01-03T09:58:17.485Z,2136
2018-01-03T09:59:19.198Z,1988
2018-01-03T10:00:21.002Z,1896
2018-01-03T10:01:22.773Z,1724
2018-01-03T10:02:24.513Z,1596
2018-01-03T10:03:26.239Z,1496
2018-01-03T10:04:27.998Z,1812
2018-01-03T10:05:29.740Z,1944
2018-01-03T10:06:31.555Z,1692
2018-01-03T10:07:33.311Z,1668
2018-01-03T10:08:35.041Z,1852
2018-01-03T10:09:36.789Z,2156
2018-01-03T10:10:38.551Z,2404
2018-01-03T10:11:40.282Z,2496
2018-01-03T10:12:42.036Z,2736
2018-01-03T10:13:43.784Z,2744
2018-01-03T10:14:45.568Z,2528
2018-01-03T10:15:47.335Z,2320
2018-01-03T10:16:49.102Z,2328
2018-01-03T10:17:50.791Z,1996
2018-01-03T10:18:52.500Z,2216
2018-01-03T10:19:54.258Z,2256
2018-01-03T10:20:56.639Z,2284
2018-01-03T10:21:58.379Z,2320
2018-01-03T10:23:00.111Z,2336
2018-01-03T10:24:01.949Z,2248
2018-01-03T10:25:03.851Z,2452
2018-01-03T10:26:05.597Z,2500
2018-01-03T10:27:07.372Z,2608
2018-01-03T10:28:09.109Z,3056
2018-01-03T10:29:10.829Z,3352
2018-01-03T10:30:12.563Z,3252
2018-01-03T10:31:14.292Z,2996
2018-01-03T10:32:16.035Z,2644
2018-01-03T10:33:17.755Z,2432
2018-01-03T10:34:19.489Z,2276
2018-01-03T10:35:21.240Z,1844
2018-01-03T10:36:22.965Z,1572
2018-01-03T10:37:24.733Z,1796
2018-01-03T10:38:26.472Z,2176
2018-01-03T10:39:28.220Z,1840
2018-01-03T10:40:29.975Z,1748
2018-01-03T10:41:31.726Z,1644
2018-01-03T10:42:33.446Z,1500
2018-01-03T10:43:35.182Z,1584
2018-01-03T10:44:36.916Z,1708
2018-01-03T10:45:38.649Z,2036
2018-01-03T10:46:40.416Z,2332
2018-01-03T10:47:42.166Z,2924
2018-01-03T10:48:43.894Z,2964
2018-01-03T10:49:45.639Z,2940
2018-01-03T10:50:47.393Z,3000
2018-01-03T10:51:49.146Z,2976
2018-01-03T10:52:50.930Z,3304
2018-01-03T10:53:52.656Z,4144
2018-01-03T10:54:54.395Z,5396
2018-01-03T10:55:56.198Z,4528
2018-01-03T10:56:57.959Z,4360
2018-01-03T10:57:59.731Z,4116
2018-01-03T10:59:01.473Z,4484
2018-01-03T11:00:03.227Z,3852
2018-01-03T11:01:05.065Z,4184
2018-01-03T11:02:06.826Z,3744
2018-01-03T11:03:08.580Z,3724
2018-01-03T11:04:10.353Z,3776
2018-01-03T11:05:12.085Z,3688
2018-01-03T11:06:13.845Z,4056
2018-01-03T11:07:15.609Z,4112
2018-01-03T11:08:17.386Z,4552
2018-01-03T11:09:19.146Z,5724
2018-01-03T11:10:20.925Z,6212
2018-01-03T11:11:22.672Z,5600
2018-01-03T11:12:24.428Z,5376
2018-01-03T11:13:26.172Z,5656
2018-01-03T11:14:27.941Z,5324
2018-01-03T11:15:29.663Z,5220
2018-01-03T11:16:31.405Z,4776
2018-01-03T11:17:33.127Z,5056
2018-01-03T11:18:34.905Z,6420
2018-01-03T11:19:36.690Z,6852
2018-01-03T11:20:38.445Z,7356
2018-01-03T11:21:40.168Z,5360
2018-01-03T11:22:41.888Z,6300
2018-01-03T11:23:43.610Z,8028
2018-01-03T11:24:45.333Z,12480
2018-01-03T11:25:47.088Z,11052
2018-01-03T11:26:48.815Z,13388
2018-01-03T11:27:50.567Z,9580
2018-01-03T11:28:52.368Z,7736
2018-01-03T11:29:54.411Z,7356
2018-01-03T11:30:56.148Z,7800
2018-01-03T11:31:57.891Z,7460
2018-01-03T11:32:59.639Z,6832
2018-01-03T11:34:01.376Z,6512
2018-01-03T11:35:03.217Z,6300
2018-01-03T11:36:05.141Z,6040
2018-01-03T11:37:06.826Z,6128
2018-01-03T11:38:08.553Z,6080
2018-01-03T11:39:10.286Z,5580
2018-01-03T11:40:12.022Z,5440
2018-01-03T11:41:13.762Z,5868
2018-01-03T11:42:15.551Z,5804
2018-01-03T11:43:17.278Z,5668
2018-01-03T11:44:19.059Z,6472
2018-01-03T11:45:20.811Z,7172
2018-01-03T11:46:22.560Z,7204
2018-01-03T11:47:24.334Z,8736
2018-01-03T11:48:26.128Z,9332
2018-01-03T11:49:27.864Z,8464
2018-01-03T11:50:29.611Z,7260
2018-01-03T11:51:31.360Z,6076
2018-01-03T11:52:33.116Z,6780
2018-01-03T11:53:34.854Z,7188
2018-01-03T11:54:36.642Z,7956
2018-01-03T11:55:38.359Z,7180
2018-01-03T11:56:40.120Z,7004
2018-01-03T11:57:41.857Z,6904
2018-01-03T11:58:43.602Z,7696
2018-01-03T11:59:45.344Z,6976
2018-01-03T12:00:47.105Z,7152
2018-01-03T12:01:48.838Z,6848
2018-01-03T12:02:50.603Z,6976
2018-01-03T12:03:52.335Z,7696
2018-01-03T12:04:54.133Z,9516
2018-01-03T12:05:55.865Z,9716
2018-01-03T12:06:57.610Z,11028
2018-01-03T12:07:59.321Z,9376
2018-01-03T12:09:01.034Z,9064
2018-01-03T12:10:02.785Z,6832
2018-01-03T12:11:04.519Z,6208
2018-01-03T12:12:06.259Z,5136
2018-01-03T12:13:07.980Z,3940
2018-01-03T12:14:09.742Z,3952
2018-01-03T12:15:11.534Z,3816
2018-01-03T12:16:13.272Z,3528
2018-01-03T12:17:15.000Z,4484
2018-01-03T12:18:16.740Z,4348
2018-01-03T12:19:18.472Z,4304
2018-01-03T12:20:20.295Z,3892
2018-01-03T12:21:22.028Z,4104
2018-01-03T12:22:23.764Z,3952
2018-01-03T12:23:25.514Z,3500
2018-01-03T12:24:27.246Z,3624
2018-01-03T12:25:28.973Z,4380
2018-01-03T12:26:30.709Z,4540
2018-01-03T12:27:32.484Z,5208
2018-01-03T12:28:34.233Z,5024
2018-01-03T12:29:35.973Z,4516
2018-01-03T12:30:37.703Z,4468
2018-01-03T12:31:39.455Z,4624
2018-01-03T12:32:41.219Z,4244
2018-01-03T12:33:42.944Z,4920
2018-01-03T12:34:44.684Z,4544
2018-01-03T12:35:46.420Z,4076
2018-01-03T12:36:48.175Z,3720
2018-01-03T12:37:49.913Z,3612
2018-01-03T12:38:51.654Z,3304
2018-01-03T12:39:53.389Z,3424
2018-01-03T12:40:55.127Z,3592
2018-01-03T12:41:56.845Z,3596
2018-01-03T12:42:58.568Z,3556
2018-01-03T12:44:00.390Z,3284
2018-01-03T12:45:02.120Z,3256
2018-01-03T12:46:03.846Z,3252
2018-01-03T12:47:05.582Z,3600
2018-01-03T12:48:07.320Z,3604
2018-01-03T12:49:09.101Z,3272
2018-01-03T12:50:10.818Z,3084
2018-01-03T12:51:12.564Z,3084
2018-01-03T12:52:14.313Z,3264
2018-01-03T12:53:16.111Z,3160
2018-01-03T12:54:17.829Z,3388
2018-01-03T12:55:19.550Z,3276
2018-01-03T12:56:21.283Z,3636
2018-01-03T12:57:23.085Z,4272
2018-01-03T12:58:24.799Z,3956
2018-01-03T12:59:26.514Z,4380
2018-01-03T13:00:28.261Z,4540
2018-01-03T13:01:29.993Z,4436
2018-01-03T13:02:31.742Z,4548
2018-01-03T13:03:33.514Z,4588
2018-01-03T13:04:35.232Z,4716
2018-01-03T13:05:36.968Z,4812
2018-01-03T13:06:38.692Z,4512
2018-01-03T13:07:40.435Z,4840
2018-01-03T13:08:42.147Z,4588
2018-01-03T13:09:43.877Z,4544
2018-01-03T13:10:45.636Z,4980
2018-01-03T13:11:47.378Z,4560
2018-01-03T13:12:49.232Z,4588
2018-01-03T13:13:50.987Z,4640
2018-01-03T13:14:52.701Z,4004
2018-01-03T13:15:54.454Z,4116
2018-01-03T13:16:56.213Z,4116
2018-01-03T13:17:57.943Z,4084
2018-01-03T13:18:59.693Z,4232
2018-01-03T13:20:01.457Z,4120
2018-01-03T13:21:03.197Z,3804
2018-01-03T13:22:04.949Z,4152
2018-01-03T13:23:06.681Z,4736
2018-01-03T13:24:08.425Z,5136
2018-01-03T13:25:10.159Z,5240
2018-01-03T13:26:11.900Z,4936
2018-01-03T13:27:13.659Z,4500
2018-01-03T13:28:15.387Z,5476
2018-01-03T13:29:17.136Z,5764
2018-01-03T13:30:18.867Z,4896
2018-01-03T13:31:20.625Z,5304
2018-01-03T13:32:22.444Z,5628
2018-01-03T13:33:24.198Z,6860
2018-01-03T13:34:25.921Z,6732
2018-01-03T13:35:27.667Z,7040
2018-01-03T13:36:29.407Z,6476
2018-01-03T13:37:31.135Z,6876
2018-01-03T13:38:32.882Z,6896
2018-01-03T13:39:34.644Z,7160
2018-01-03T13:40:36.387Z,6880
2018-01-03T13:41:38.123Z,6452
2018-01-03T13:42:39.912Z,6384
2018-01-03T13:43:41.648Z,6308
2018-01-03T13:44:43.401Z,6952
2018-01-03T13:45:45.129Z,7200
2018-01-03T13:46:46.868Z,6648
2018-01-03T13:47:48.638Z,6852
2018-01-03T13:48:50.371Z,5628
2018-01-03T13:49:52.108Z,4424
2018-01-03T13:50:53.838Z,4028
2018-01-03T13:51:55.572Z,4276
2018-01-03T13:52:57.298Z,4128
2018-01-03T13:53:59.026Z,4720
2018-01-03T13:55:00.798Z,4908
2018-01-03T13:56:02.530Z,4684
2018-01-03T13:57:04.264Z,3992
2018-01-03T13:58:06.015Z,3864
2018-01-03T13:59:07.733Z,4260
2018-01-03T14:00:09.468Z,5384
2018-01-03T14:01:11.275Z,5820
2018-01-03T14:02:13.053Z,4508
2018-01-03T14:03:14.784Z,4160
2018-01-03T14:04:16.517Z,5300
2018-01-03T14:05:18.230Z,5128
2018-01-03T14:06:19.979Z,6000
2018-01-03T14:07:22.630Z,6436
2018-01-03T14:08:24.384Z,5544
2018-01-03T14:09:26.141Z,5032
2018-01-03T14:10:27.897Z,5012
2018-01-03T14:11:29.631Z,5472
2018-01-03T14:12:31.374Z,7176
2018-01-03T14:13:33.127Z,7548
2018-01-03T14:14:34.854Z,7512
2018-01-03T14:15:36.583Z,8004
2018-01-03T14:16:38.334Z,7452
2018-01-03T14:17:40.050Z,6792
2018-01-03T14:18:41.814Z,6816
2018-01-03T14:19:43.540Z,5548
2018-01-03T14:20:45.297Z,5892
2018-01-03T14:21:47.013Z,6040
2018-01-03T14:22:48.754Z,6064
2018-01-03T14:23:50.501Z,6364
2018-01-03T14:24:52.253Z,6500
2018-01-03T14:25:54.017Z,6720
2018-01-03T14:26:55.827Z,6292
2018-01-03T14:27:57.559Z,6480
2018-01-03T14:28:59.313Z,6040
2018-01-03T14:30:01.030Z,5612
2018-01-03T14:31:02.792Z,5436
2018-01-03T14:32:04.521Z,5724
2018-01-03T14:33:06.286Z,7144
2018-01-03T14:34:08.009Z,7664